Time;durP1;ratioP1;P1;durP2;ratioP2;P2;SDS_P1;SDS_P2;PMS_P1;PMS_P2;Temp;Humidity;BMP_temperature;BMP_pressure;BME280_temperature;BME280_humidity;BME280_pressure;Samples;Min_cycle;Max_cycle;Signal;HPM_P1;HPM_P2
2023/06/06 00:00:13;;;;;;;14.30;7.68;;;;;;;15.99;66.72;101946.50;5116326;28;20024;-63
2023/06/06 00:02:43;;;;;;;11.52;7.25;;;;;;;15.90;67.18;101949.09;5116503;28;20057;-62
2023/06/06 00:05:12;;;;;;;13.52;7.50;;;;;;;15.95;66.66;101944.69;5115909;28;20024;-62
2023/06/06 00:07:40;;;;;;;14.48;8.00;;;;;;;15.89;66.90;101952.66;5116546;28;20419;-63
2023/06/06 00:10:07;;;;;;;12.73;7.60;;;;;;;15.72;67.42;101944.53;5116430;28;20039;-63
2023/06/06 00:12:33;;;;;;;14.48;7.45;;;;;;;15.76;67.48;101939.25;5116055;28;20107;-63
2023/06/06 00:15:03;;;;;;;15.18;7.45;;;;;;;15.76;67.19;101941.91;5115768;28;20134;-63
2023/06/06 00:17:28;;;;;;;11.90;6.90;;;;;;;15.80;67.46;101940.13;5115928;28;20465;-63
2023/06/06 00:19:54;;;;;;;11.02;7.20;;;;;;;15.71;67.23;101940.06;5115605;28;20018;-62
2023/06/06 00:22:23;;;;;;;12.50;7.45;;;;;;;15.65;67.63;101948.03;5115962;28;20031;-63
2023/06/06 00:24:52;;;;;;;11.02;7.57;;;;;;;15.70;67.35;101946.28;5116104;28;20088;-64
2023/06/06 00:27:19;;;;;;;11.60;7.85;;;;;;;15.64;67.38;101944.47;5097603;28;20023;-63
2023/06/06 00:29:45;;;;;;;11.05;7.28;;;;;;;15.65;67.44;101940.94;5115786;28;20031;-62
2023/06/06 00:32:10;;;;;;;10.82;7.70;;;;;;;15.65;67.34;101948.03;5115950;28;20019;-62
2023/06/06 00:34:35;;;;;;;11.88;7.40;;;;;;;15.56;67.59;101954.16;5115632;28;20023;-63
2023/06/06 00:37:01;;;;;;;14.75;8.10;;;;;;;15.46;67.91;101945.19;5115618;28;20050;-63
2023/06/06 00:39:26;;;;;;;12.45;7.35;;;;;;;15.43;68.40;101953.16;5115666;28;20044;-63
2023/06/06 00:41:51;;;;;;;14.05;7.60;;;;;;;15.38;68.53;101949.56;5115878;28;20496;-63
2023/06/06 00:44:18;;;;;;;10.07;7.20;;;;;;;15.37;68.59;101952.19;5115833;28;20380;-63
2023/06/06 00:46:43;;;;;;;13.80;7.85;;;;;;;15.24;68.75;101946.75;5115654;28;20027;-63
2023/06/06 00:49:12;;;;;;;14.40;7.97;;;;;;;15.17;68.76;101942.28;5115471;28;20467;-62
2023/06/06 00:51:38;;;;;;;13.93;7.80;;;;;;;15.11;69.21;101952.84;5115604;28;20101;-63
2023/06/06 00:54:07;;;;;;;13.68;8.18;;;;;;;15.06;69.21;101953.69;5115326;28;20446;-63
2023/06/06 00:56:36;;;;;;;11.98;7.43;;;;;;;15.08;69.36;101952.84;5115407;28;20040;-63
2023/06/06 00:59:01;;;;;;;18.92;7.88;;;;;;;14.96;69.74;101950.03;5115212;28;20049;-62
2023/06/06 01:01:33;;;;;;;13.13;7.63;;;;;;;14.96;69.83;101947.38;5115042;28;20536;-63
2023/06/06 01:04:02;;;;;;;11.60;7.13;;;;;;;15.00;69.54;101944.78;5115419;28;20031;-62
2023/06/06 01:06:33;;;;;;;13.77;8.05;;;;;;;14.96;69.71;101944.72;5114972;28;20425;-63
2023/06/06 01:08:59;;;;;;;12.35;7.30;;;;;;;15.01;69.55;101946.53;5115380;28;20061;-63
2023/06/06 01:11:35;;;;;;;12.98;7.82;;;;;;;14.93;69.83;101950.00;5096662;28;20036;-62
2023/06/06 01:14:11;;;;;;;13.18;7.53;;;;;;;14.90;69.79;101942.91;5114830;28;20023;-63
2023/06/06 01:16:39;;;;;;;13.13;7.40;;;;;;;14.88;69.86;101952.63;5114822;28;20051;-62
2023/06/06 01:19:10;;;;;;;11.73;7.70;;;;;;;14.77;70.04;101947.19;5114883;28;20507;-63
2023/06/06 01:21:44;;;;;;;12.13;7.50;;;;;;;14.84;70.44;101945.47;5114688;28;20023;-63
2023/06/06 01:24:10;;;;;;;11.43;7.82;;;;;;;14.71;70.24;101941.78;5114863;28;20038;-62
2023/06/06 01:26:35;;;;;;;12.18;7.03;;;;;;;14.75;70.61;101942.72;5114591;28;20020;-63
2023/06/06 01:29:01;;;;;;;11.57;7.63;;;;;;;14.67;70.36;101939.97;5114807;28;20027;-63
2023/06/06 01:31:36;;;;;;;12.55;7.70;;;;;;;14.69;70.36;101948.88;5114006;28;20019;-63
2023/06/06 01:34:11;;;;;;;11.98;7.28;;;;;;;14.69;70.48;101946.22;5114585;28;20027;-63
2023/06/06 01:36:45;;;;;;;12.10;7.75;;;;;;;14.53;70.71;101946.91;5114469;28;20481;-63
2023/06/06 01:39:17;;;;;;;12.63;7.75;;;;;;;14.50;70.92;101939.75;5114687;28;20028;-63
2023/06/06 01:41:45;;;;;;;12.25;7.70;;;;;;;14.55;70.84;101946.91;5114409;28;20465;-63
2023/06/06 01:44:13;;;;;;;13.27;7.93;;;;;;;14.45;71.17;101949.44;5114687;28;20015;-62
2023/06/06 01:46:40;;;;;;;11.60;7.25;;;;;;;14.47;71.45;101942.38;5114371;28;20499;-63
2023/06/06 01:49:07;;;;;;;12.20;7.95;;;;;;;14.51;70.77;101941.53;5114339;28;20046;-63
2023/06/06 01:51:32;;;;;;;12.23;7.68;;;;;;;14.43;70.98;101942.28;5114039;28;20039;-63
2023/06/06 01:53:58;;;;;;;10.68;7.03;;;;;;;14.46;70.85;101940.56;5114333;28;20027;-63
2023/06/06 01:56:25;;;;;;;11.32;7.28;;;;;;;14.39;70.97;101935.16;5114412;28;20023;-62
2023/06/06 01:58:52;;;;;;;10.82;7.40;;;;;;;14.28;70.90;101938.56;5114195;28;20019;-63
2023/06/06 02:01:17;;;;;;;11.52;7.57;;;;;;;14.28;71.18;101941.22;5114003;28;20020;-62
2023/06/06 02:03:43;;;;;;;12.88;7.63;;;;;;;14.31;70.87;101942.16;5114109;28;20030;-63
2023/06/06 02:06:08;;;;;;;11.40;8.15;;;;;;;14.22;71.62;101948.25;5113803;28;20031;-62
2023/06/06 02:08:33;;;;;;;11.52;7.57;;;;;;;14.20;71.42;101944.66;5113980;28;20024;-63
2023/06/06 02:10:59;;;;;;;13.98;7.55;;;;;;;14.16;71.58;101948.16;5113962;28;20390;-62
2023/06/06 02:13:25;;;;;;;10.55;7.50;;;;;;;14.14;72.04;101949.91;5113839;28;20027;-65
2023/06/06 02:15:51;;;;;;;11.27;7.07;;;;;;;14.17;71.19;101947.28;5113785;28;20055;-63
2023/06/06 02:18:16;;;;;;;11.00;7.43;;;;;;;14.08;71.65;101947.16;5113750;28;20099;-63
2023/06/06 02:20:42;;;;;;;11.40;7.05;;;;;;;14.22;71.29;101943.81;5113518;28;20477;-62
2023/06/06 02:23:07;;;;;;;11.82;7.53;;;;;;;14.14;71.25;101941.94;5113864;28;20043;-63
2023/06/06 02:25:33;;;;;;;12.35;7.80;;;;;;;14.07;71.41;101948.91;5113904;28;20031;-63
2023/06/06 02:27:59;;;;;;;12.27;7.55;;;;;;;14.02;71.78;101948.84;5113842;28;20370;-62
2023/06/06 02:30:24;;;;;;;12.82;7.63;;;;;;;14.06;71.96;101949.78;5113600;28;20049;-63
2023/06/06 02:32:50;;;;;;;13.40;7.60;;;;;;;13.95;71.79;101952.28;5113485;28;20024;-63
2023/06/06 02:35:18;;;;;;;12.25;7.75;;;;;;;13.80;72.52;101943.22;5113323;28;20157;-62
2023/06/06 02:37:44;;;;;;;13.00;7.40;;;;;;;13.75;72.68;101943.16;5113369;28;20032;-63
2023/06/06 02:40:11;;;;;;;11.23;7.53;;;;;;;13.82;72.58;101944.13;5113676;28;20034;-63
2023/06/06 02:42:38;;;;;;;13.40;7.60;;;;;;;13.83;72.44;101935.25;5112714;28;20377;-63
2023/06/06 02:45:07;;;;;;;12.93;7.80;;;;;;;13.76;72.60;101948.47;5113375;28;20034;-63
2023/06/06 02:47:33;;;;;;;10.60;7.53;;;;;;;13.76;72.79;101942.28;5113283;28;20548;-63
2023/06/06 02:49:58;;;;;;;13.52;7.43;;;;;;;13.74;72.40;101947.53;5113163;28;20058;-62
2023/06/06 02:52:24;;;;;;;11.48;7.40;;;;;;;13.76;72.23;101948.47;5113121;28;20114;-63
2023/06/06 02:54:50;;;;;;;13.75;7.65;;;;;;;13.66;72.83;101951.88;5113341;28;20367;-63
2023/06/06 02:57:15;;;;;;;11.65;7.40;;;;;;;13.67;72.73;101947.44;5113335;28;20061;-63
2023/06/06 02:59:41;;;;;;;11.40;7.50;;;;;;;13.71;72.63;101942.19;5113188;28;20035;-63
2023/06/06 03:02:07;;;;;;;12.18;7.53;;;;;;;13.68;72.52;101955.44;5113261;28;20472;-63
2023/06/06 03:04:33;;;;;;;11.43;7.15;;;;;;;13.63;72.80;101956.22;5112884;28;20026;-62
2023/06/06 03:06:59;;;;;;;12.40;7.43;;;;;;;13.53;72.85;101950.78;5113125;28;20438;-63
2023/06/06 03:09:26;;;;;;;14.63;7.93;;;;;;;13.51;72.99;101959.56;5113226;28;20085;-63
2023/06/06 03:11:52;;;;;;;16.42;7.80;;;;;;;13.58;72.68;101960.59;5112999;28;20023;-62
2023/06/06 03:14:18;;;;;;;12.27;7.68;;;;;;;13.57;72.50;101961.44;5113118;28;20534;-63
2023/06/06 03:16:43;;;;;;;11.48;7.63;;;;;;;13.51;72.90;101960.47;5112687;28;20075;-63
2023/06/06 03:19:10;;;;;;;12.57;7.40;;;;;;;13.47;73.24;101960.38;5113002;28;20039;-62
2023/06/06 03:21:36;;;;;;;11.88;7.45;;;;;;;13.41;73.02;101955.00;5094816;28;20143;-63
2023/06/06 03:24:02;;;;;;;12.13;7.75;;;;;;;13.43;72.84;101953.25;5112969;28;20461;-62
2023/06/06 03:26:28;;;;;;;15.15;7.97;;;;;;;13.51;72.80;101957.81;5113016;28;20039;-63
2023/06/06 03:28:56;;;;;;;14.38;7.47;;;;;;;13.43;72.73;101956.78;5112938;28;20027;-62
2023/06/06 03:31:23;;;;;;;11.30;7.65;;;;;;;13.48;72.66;101959.50;5112859;28;20039;-62
2023/06/06 03:33:52;;;;;;;11.75;7.47;;;;;;;13.43;72.89;101953.25;5112498;28;20039;-63
2023/06/06 03:36:19;;;;;;;12.60;7.43;;;;;;;13.45;72.80;101951.53;5112802;28;20020;-62
2023/06/06 03:38:45;;;;;;;11.55;7.28;;;;;;;13.49;73.02;101950.72;5094602;28;20472;-62
2023/06/06 03:41:11;;;;;;;10.73;7.45;;;;;;;13.50;72.37;101944.53;5112788;28;20042;-62
2023/06/06 03:43:36;;;;;;;14.43;7.57;;;;;;;13.53;72.70;101961.41;5113094;28;20031;-62
2023/06/06 03:46:01;;;;;;;12.38;7.50;;;;;;;13.45;72.66;101959.50;5112842;28;20506;-62
2023/06/06 03:48:27;;;;;;;12.48;7.13;;;;;;;13.50;72.87;101952.47;5112716;28;20098;-62
2023/06/06 03:50:52;;;;;;;10.02;7.07;;;;;;;13.45;72.78;101951.53;5112989;28;20028;-63
2023/06/06 03:53:18;;;;;;;13.63;8.05;;;;;;;13.38;73.16;101962.91;5112674;28;20517;-63
2023/06/06 03:55:46;;;;;;;12.13;7.13;;;;;;;13.35;73.29;101954.88;5116579;28;20024;-62
2023/06/06 03:58:15;;;;;;;11.50;7.47;;;;;;;13.34;72.99;101959.28;5116484;28;20028;-62
2023/06/06 04:00:43;;;;;;;12.52;7.82;;;;;;;13.34;73.22;101951.31;5098430;28;20069;-62
2023/06/06 04:03:08;;;;;;;12.13;7.35;;;;;;;13.32;73.47;101961.03;5116288;28;20057;-63
2023/06/06 04:05:34;;;;;;;11.57;7.55;;;;;;;13.28;73.38;101956.53;5116106;28;20036;-63
2023/06/06 04:08:00;;;;;;;13.90;7.55;;;;;;;13.25;73.75;101961.78;5116372;28;20092;-62
2023/06/06 04:10:26;;;;;;;10.13;7.05;;;;;;;13.24;73.78;101952.03;5116229;28;20028;-62
2023/06/06 04:12:51;;;;;;;14.20;7.40;;;;;;;13.23;74.06;101961.78;5116098;28;20120;-63
2023/06/06 04:15:17;;;;;;;14.82;7.75;;;;;;;13.17;74.54;101963.38;5115776;28;20044;-62
2023/06/06 04:17:42;;;;;;;12.40;7.00;;;;;;;13.17;74.70;101955.41;5115975;28;20039;-63
2023/06/06 04:20:09;;;;;;;12.85;7.50;;;;;;;13.15;74.34;101960.72;5116108;28;20027;-62
2023/06/06 04:22:38;;;;;;;11.30;7.53;;;;;;;13.14;74.67;101963.31;5116126;28;20031;-62
2023/06/06 04:25:04;;;;;;;12.20;7.50;;;;;;;13.17;74.58;101958.06;5115992;28;20020;-63
2023/06/06 04:27:30;;;;;;;10.88;7.30;;;;;;;13.28;74.67;101951.22;5115933;28;20417;-62
2023/06/06 04:29:57;;;;;;;10.52;7.22;;;;;;;13.30;74.42;101959.22;5115630;28;20096;-63
2023/06/06 04:32:23;;;;;;;15.48;7.53;;;;;;;13.32;74.50;101961.03;5115939;28;20035;-62
2023/06/06 04:34:51;;;;;;;12.18;8.10;;;;;;;13.35;73.96;101958.41;5115829;28;20484;-62
2023/06/06 04:37:18;;;;;;;12.20;7.85;;;;;;;13.32;74.31;101963.69;5115908;28;20062;-63
2023/06/06 04:39:44;;;;;;;12.88;7.40;;;;;;;13.30;75.09;101962.75;5115861;28;20031;-63
2023/06/06 04:42:10;;;;;;;16.88;7.75;;;;;;;13.29;74.79;101966.28;5115512;28;20438;-64
2023/06/06 04:44:46;;;;;;;14.43;7.78;;;;;;;13.31;74.89;101971.59;5115384;28;20031;-63
2023/06/06 04:47:12;;;;;;;16.50;7.90;;;;;;;13.33;75.17;101967.25;5097344;28;20042;-63
2023/06/06 04:49:40;;;;;;;13.57;7.50;;;;;;;13.34;75.01;101967.25;5097454;28;20031;-63
2023/06/06 04:52:07;;;;;;;14.40;7.78;;;;;;;13.39;74.84;101965.56;5115132;28;20084;-62
2023/06/06 04:54:33;;;;;;;10.93;7.18;;;;;;;13.47;74.88;101968.34;5115316;28;20028;-63
2023/06/06 04:57:00;;;;;;;14.10;8.30;;;;;;;13.40;74.99;101964.69;5115284;28;20028;-62
2023/06/06 04:59:27;;;;;;;15.98;7.80;;;;;;;13.45;75.06;101965.69;5115047;28;20027;-63
2023/06/06 05:01:53;;;;;;;11.63;7.63;;;;;;;13.53;75.02;101964.06;5115219;28;20024;-62
2023/06/06 05:04:18;;;;;;;16.40;8.60;;;;;;;13.59;74.56;101963.25;5114912;28;20024;-62
2023/06/06 05:06:44;;;;;;;12.98;7.35;;;;;;;13.81;74.56;101963.59;5113980;28;20035;-62
2023/06/06 05:09:09;;;;;;;14.05;8.15;;;;;;;13.91;74.05;101969.06;5115281;28;20034;-63
2023/06/06 05:11:35;;;;;;;14.27;8.65;;;;;;;13.95;73.55;101957.59;5114788;28;20031;-63
2023/06/06 05:14:01;;;;;;;14.65;9.00;;;;;;;13.94;73.63;101969.09;5114672;28;20496;-63
2023/06/06 05:16:27;;;;;;;15.70;8.43;;;;;;;13.97;73.43;101968.28;5114766;28;20040;-62
2023/06/06 05:18:52;;;;;;;16.52;8.88;;;;;;;13.97;73.12;101960.31;5114710;28;20109;-62
2023/06/06 05:21:19;;;;;;;12.63;8.45;;;;;;;14.06;73.19;101970.16;5114679;28;20115;-63
2023/06/06 05:23:47;;;;;;;14.75;8.18;;;;;;;14.11;73.11;101966.69;5111424;28;20389;-65
2023/06/06 05:26:13;;;;;;;12.95;8.25;;;;;;;14.07;73.05;101970.19;5094213;28;20066;-63
2023/06/06 05:28:39;;;;;;;12.30;7.78;;;;;;;14.18;73.17;101976.56;5094472;28;20055;-63
2023/06/06 05:31:08;;;;;;;13.65;8.55;;;;;;;14.33;72.88;101969.66;5094201;28;20389;-63
2023/06/06 05:33:34;;;;;;;13.77;8.00;;;;;;;14.48;72.46;101970.78;5093916;28;20024;-63
2023/06/06 05:36:00;;;;;;;13.55;8.73;;;;;;;14.54;72.31;101964.63;5094137;28;20111;-63
2023/06/06 05:38:26;;;;;;;15.32;8.77;;;;;;;14.63;71.40;101963.84;5094083;28;20062;-63
2023/06/06 05:40:52;;;;;;;13.25;8.05;;;;;;;14.74;71.20;101971.09;5093919;28;20107;-63
2023/06/06 05:43:17;;;;;;;16.30;8.52;;;;;;;14.86;70.24;101972.09;5094197;28;20028;-63
2023/06/06 05:45:43;;;;;;;13.50;8.43;;;;;;;15.03;70.12;101978.50;5093935;28;20110;-63
2023/06/06 05:48:08;;;;;;;16.75;8.45;;;;;;;15.20;69.95;101978.66;5093958;28;20492;-62
2023/06/06 05:50:34;;;;;;;14.63;7.72;;;;;;;15.42;69.51;101985.13;5093438;28;20020;-63
2023/06/06 05:52:59;;;;;;;20.30;8.50;;;;;;;15.62;68.55;101987.94;5093926;28;20046;-63
2023/06/06 05:55:35;;;;;;;12.63;8.27;;;;;;;15.80;67.71;101985.44;5093276;28;20063;-62
2023/06/06 05:58:03;;;;;;;14.18;8.50;;;;;;;15.88;67.04;101978.38;5093532;28;20098;-62
2023/06/06 06:00:32;;;;;;;13.95;7.85;;;;;;;15.97;66.23;101981.16;5093300;28;20453;-63
2023/06/06 06:02:58;;;;;;;14.60;7.80;;;;;;;16.12;66.72;101971.44;5093490;28;20491;-62
2023/06/06 06:05:31;;;;;;;11.68;7.93;;;;;;;16.33;66.39;101979.56;5093638;28;20020;-63
2023/06/06 06:08:01;;;;;;;16.38;7.47;;;;;;;16.54;65.03;101968.13;5093366;28;20035;-63
2023/06/06 06:10:27;;;;;;;14.75;7.97;;;;;;;16.67;64.63;101972.59;5093473;28;20032;-63
2023/06/06 06:12:53;;;;;;;12.95;7.95;;;;;;;16.83;63.93;101968.25;5093284;28;20100;-62
2023/06/06 06:15:18;;;;;;;13.82;7.63;;;;;;;17.01;63.74;101970.06;5093322;28;20509;-63
2023/06/06 06:17:44;;;;;;;12.40;7.90;;;;;;;17.26;62.61;101966.56;5093433;28;20046;-62
2023/06/06 06:20:11;;;;;;;15.30;8.02;;;;;;;17.42;61.63;101972.78;5093349;28;20035;-63
2023/06/06 06:22:36;;;;;;;15.23;7.43;;;;;;;17.52;61.27;101977.25;5093016;28;20040;-63
2023/06/06 06:25:08;;;;;;;15.27;7.13;;;;;;;17.70;61.14;101978.13;5093267;28;20111;-62
2023/06/06 06:27:35;;;;;;;11.43;7.43;;;;;;;17.86;60.16;101974.59;5075928;28;20386;-63
2023/06/06 06:30:04;;;;;;;13.60;7.60;;;;;;;18.08;59.91;101979.91;5093180;28;20492;-63
2023/06/06 06:32:30;;;;;;;12.68;7.05;;;;;;;18.32;58.46;101977.16;5093348;28;20381;-63
2023/06/06 06:34:55;;;;;;;13.02;7.47;;;;;;;18.33;58.07;101986.06;5092854;28;20023;-63
2023/06/06 06:37:21;;;;;;;11.35;7.03;;;;;;;18.41;58.55;101986.94;5093040;28;20040;-62
2023/06/06 06:39:48;;;;;;;11.93;6.97;;;;;;;18.48;57.05;101992.28;5093076;28;20024;-63
2023/06/06 06:42:14;;;;;;;16.45;7.20;;;;;;;18.66;57.72;101985.94;5092945;28;20499;-62
2023/06/06 06:44:39;;;;;;;11.25;6.90;;;;;;;18.72;56.75;101977.94;5093041;28;20028;-63
2023/06/06 06:47:05;;;;;;;10.80;6.90;;;;;;;18.85;57.30;101989.47;5092929;28;20081;-63
2023/06/06 06:49:30;;;;;;;13.32;7.07;;;;;;;19.03;55.67;101983.13;5092775;28;20360;-63
2023/06/06 06:51:57;;;;;;;13.93;6.97;;;;;;;19.02;55.08;101984.03;5092440;28;20027;-63
2023/06/06 06:54:25;;;;;;;11.50;6.53;;;;;;;19.05;54.64;101986.66;5093146;28;20068;-63
2023/06/06 06:56:53;;;;;;;11.73;6.93;;;;;;;19.20;54.91;101993.72;5092833;28;20609;-64
2023/06/06 06:59:20;;;;;;;11.45;6.55;;;;;;;19.57;54.82;101990.75;5093104;28;20028;-63
2023/06/06 07:01:49;;;;;;;10.75;6.15;;;;;;;19.83;54.17;101987.88;5092780;28;20440;-63
2023/06/06 07:04:17;;;;;;;13.38;7.18;;;;;;;19.99;52.34;101987.72;5092659;28;20024;-62
2023/06/06 07:06:46;;;;;;;9.98;6.57;;;;;;;20.18;51.41;101987.56;5092733;28;20028;-63
2023/06/06 07:09:15;;;;;;;9.25;5.97;;;;;;;20.18;51.85;101988.44;5092840;28;20111;-63
2023/06/06 07:11:40;;;;;;;12.55;6.50;;;;;;;20.29;51.73;101985.63;5092678;28;20040;-63
2023/06/06 07:14:06;;;;;;;13.73;6.00;;;;;;;20.42;51.74;101984.56;5092963;28;20115;-63
2023/06/06 07:16:34;;;;;;;9.23;5.72;;;;;;;20.63;50.44;101982.56;5092367;28;20040;-62
2023/06/06 07:18:59;;;;;;;8.60;6.20;;;;;;;20.76;50.50;101981.50;5092486;28;20465;-63
2023/06/06 07:21:25;;;;;;;14.55;5.95;;;;;;;21.07;50.18;101983.75;5092572;28;20020;-63
2023/06/06 07:23:51;;;;;;;9.30;6.20;;;;;;;21.27;49.53;101978.97;5092761;28;20119;-63
2023/06/06 07:26:19;;;;;;;10.98;6.25;;;;;;;21.41;48.31;101981.47;5092671;28;20058;-63
2023/06/06 07:28:45;;;;;;;10.98;6.18;;;;;;;21.20;48.91;101982.69;5093273;28;20024;-63
2023/06/06 07:31:10;;;;;;;11.50;6.28;;;;;;;21.41;48.34;101985.06;5096570;28;20039;-63
2023/06/06 07:33:36;;;;;;;8.45;5.80;;;;;;;21.48;47.00;101984.03;5096294;28;20028;-63
2023/06/06 07:36:02;;;;;;;10.10;6.22;;;;;;;21.65;47.04;101983.75;5096443;28;20373;-63
2023/06/06 07:38:28;;;;;;;9.05;6.07;;;;;;;21.81;47.51;101976.31;5096710;28;20045;-66
2023/06/06 07:40:53;;;;;;;12.52;6.63;;;;;;;21.81;47.17;101984.41;5096491;28;20032;-63
2023/06/06 07:43:19;;;;;;;10.90;6.10;;;;;;;22.08;46.43;101974.03;5096494;28;20086;-63
2023/06/06 07:45:44;;;;;;;11.07;6.85;;;;;;;22.15;46.74;101968.53;5096342;28;20034;-63
2023/06/06 07:48:10;;;;;;;10.35;6.88;;;;;;;22.48;45.14;101966.06;5096012;28;20115;-62
2023/06/06 07:50:35;;;;;;;9.95;6.30;;;;;;;22.56;45.54;101968.59;5096260;28;20477;-62
2023/06/06 07:53:01;;;;;;;10.07;6.25;;;;;;;22.64;44.25;101963.94;5095852;28;20032;-63
2023/06/06 07:55:26;;;;;;;12.10;6.20;;;;;;;22.96;44.55;101961.47;5096482;28;20081;-63
2023/06/06 07:57:52;;;;;;;11.38;6.25;;;;;;;23.18;43.86;101960.97;5096334;28;20032;-63
2023/06/06 08:00:18;;;;;;;12.30;6.70;;;;;;;23.44;44.74;101958.50;5096072;28;20486;-62
2023/06/06 08:02:43;;;;;;;11.95;6.70;;;;;;;23.52;42.46;101960.13;5096203;28;20036;-63
2023/06/06 08:05:10;;;;;;;10.80;6.15;;;;;;;23.61;42.58;101955.38;5095770;28;20022;-63
2023/06/06 08:07:38;;;;;;;13.15;6.65;;;;;;;23.67;41.82;101957.94;5096043;28;20111;-63
2023/06/06 08:10:04;;;;;;;11.57;6.28;;;;;;;23.66;42.91;101955.28;5096134;28;20109;-63
2023/06/06 08:12:29;;;;;;;11.80;6.43;;;;;;;23.78;43.22;101956.78;5095900;28;20028;-63
2023/06/06 08:14:55;;;;;;;10.63;7.00;;;;;;;23.96;41.15;101959.00;5095807;28;20074;-63
2023/06/06 08:17:20;;;;;;;11.27;6.28;;;;;;;24.09;41.28;101959.53;5095628;28;20394;-63
2023/06/06 08:19:45;;;;;;;11.02;6.55;;;;;;;24.18;41.20;101959.28;5095705;28;20103;-63
2023/06/06 08:22:11;;;;;;;12.50;6.07;;;;;;;24.47;40.48;101964.75;5095634;28;20032;-62
2023/06/06 08:24:37;;;;;;;13.27;6.40;;;;;;;24.48;40.32;101955.72;5095756;28;20055;-63
2023/06/06 08:27:03;;;;;;;10.18;6.72;;;;;;;24.54;39.79;101960.09;5095976;28;20032;-63
2023/06/06 08:29:29;;;;;;;11.55;6.53;;;;;;;24.66;40.13;101964.22;5095534;28;20028;-63
2023/06/06 08:31:54;;;;;;;10.77;6.40;;;;;;;25.01;39.60;101955.03;5095419;28;20044;-63
2023/06/06 08:34:23;;;;;;;10.32;6.03;;;;;;;25.12;39.70;101954.69;5077097;28;20048;-63
2023/06/06 08:36:50;;;;;;;11.27;6.70;;;;;;;25.28;39.37;101957.81;5095332;28;20031;-63
2023/06/06 08:39:18;;;;;;;11.82;6.90;;;;;;;25.51;38.78;101944.38;5095468;28;20031;-63
2023/06/06 08:41:49;;;;;;;14.85;6.45;;;;;;;25.63;40.45;101943.97;5077037;28;20032;-63
2023/06/06 08:44:15;;;;;;;11.35;6.70;;;;;;;25.72;38.30;101951.75;5095055;28;20063;-63
2023/06/06 08:46:42;;;;;;;14.05;6.53;;;;;;;25.86;38.30;101951.28;5077486;28;20051;-63
2023/06/06 08:49:10;;;;;;;12.40;6.90;;;;;;;26.03;38.26;101953.41;5077040;28;20036;-62
2023/06/06 08:51:36;;;;;;;12.27;7.07;;;;;;;26.21;37.70;101949.16;5095033;28;20027;-63
2023/06/06 08:54:04;;;;;;;10.82;6.22;;;;;;;26.04;36.97;101949.78;5095320;28;20035;-62
2023/06/06 08:56:30;;;;;;;10.63;6.10;;;;;;;26.22;37.54;101946.38;5095033;28;20025;-63
2023/06/06 08:58:56;;;;;;;15.18;6.22;;;;;;;26.34;37.64;101953.19;5095103;28;20420;-63
2023/06/06 09:01:22;;;;;;;13.23;6.40;;;;;;;26.49;37.08;101954.44;5094976;28;20471;-63
2023/06/06 09:03:48;;;;;;;12.52;6.65;;;;;;;26.39;36.95;101945.75;5095147;28;20073;-63
2023/06/06 09:06:16;;;;;;;12.18;6.63;;;;;;;26.44;37.08;101942.91;5094788;28;20416;-63
2023/06/06 09:08:43;;;;;;;11.20;6.18;;;;;;;26.57;37.14;101946.03;5094706;28;20050;-63
2023/06/06 09:11:08;;;;;;;11.88;6.43;;;;;;;26.60;37.10;101945.91;5094859;28;20134;-64
2023/06/06 09:13:33;;;;;;;13.32;6.45;;;;;;;26.74;36.57;101946.25;5094739;28;20095;-63
2023/06/06 09:16:00;;;;;;;10.68;6.95;;;;;;;26.97;35.38;101946.19;5094520;28;20389;-63
2023/06/06 09:18:29;;;;;;;10.27;6.50;;;;;;;27.18;35.88;101947.19;5094631;28;20032;-63
2023/06/06 09:20:55;;;;;;;11.25;6.47;;;;;;;27.35;35.33;101945.63;5094449;28;20477;-64
2023/06/06 09:23:21;;;;;;;10.25;6.47;;;;;;;27.55;36.20;101947.50;5094636;28;20036;-63
2023/06/06 09:25:47;;;;;;;10.88;6.30;;;;;;;27.62;35.55;101947.19;5094693;28;20385;-63
2023/06/06 09:28:13;;;;;;;12.30;6.90;;;;;;;27.68;34.14;101940.59;5094460;28;20473;-64
2023/06/06 09:30:39;;;;;;;11.48;6.40;;;;;;;27.51;35.35;101933.16;5094395;28;20035;-63
2023/06/06 09:33:05;;;;;;;10.30;6.43;;;;;;;27.70;34.83;101931.41;5094540;28;20031;-62
2023/06/06 09:35:41;;;;;;;12.30;6.30;;;;;;;27.91;34.04;101940.47;5094249;28;20039;-63
2023/06/06 09:38:15;;;;;;;15.88;6.75;;;;;;;27.78;34.63;101928.38;5094405;28;20035;-63
2023/06/06 09:40:47;;;;;;;10.65;6.30;;;;;;;28.07;34.09;101929.81;5093963;28;20032;-63
2023/06/06 09:43:16;;;;;;;10.77;6.43;;;;;;;28.00;33.79;101922.88;5094184;28;20078;-63
2023/06/06 09:45:51;;;;;;;13.68;6.65;;;;;;;28.28;33.91;101924.34;5094088;28;20055;-64
2023/06/06 09:48:21;;;;;;;10.98;5.90;;;;;;;28.60;33.32;101931.03;5094102;28;20469;-63
2023/06/06 09:50:47;;;;;;;12.75;5.75;;;;;;;28.81;32.78;101920.94;5094217;28;20028;-63
2023/06/06 09:53:12;;;;;;;13.38;5.80;;;;;;;28.69;32.87;101922.41;5093186;28;20431;-64
2023/06/06 09:55:40;;;;;;;9.63;5.93;;;;;;;28.89;32.65;101919.63;5094116;28;20055;-63
2023/06/06 09:58:08;;;;;;;9.90;6.63;;;;;;;28.89;32.56;101916.88;5093839;28;20081;-63
2023/06/06 10:00:37;;;;;;;10.57;5.63;;;;;;;29.07;32.71;101919.69;5094019;28;20115;-63
2023/06/06 10:03:04;;;;;;;12.57;6.30;;;;;;;29.21;32.45;101914.47;5093516;28;20055;-63
2023/06/06 10:05:31;;;;;;;9.80;5.15;;;;;;;29.22;33.09;101912.63;5093519;28;20024;-63
2023/06/06 10:07:57;;;;;;;10.18;5.90;;;;;;;29.30;30.94;101921.28;5093782;28;20367;-64
2023/06/06 10:10:24;;;;;;;11.55;6.45;;;;;;;29.09;31.48;101913.22;5093498;28;20032;-63
2023/06/06 10:12:53;;;;;;;11.73;6.00;;;;;;;29.06;32.01;101909.78;5093415;28;20561;-63
2023/06/06 10:15:20;;;;;;;12.05;6.10;;;;;;;29.18;31.00;101904.59;5093269;28;20055;-63
2023/06/06 10:17:45;;;;;;;9.20;5.47;;;;;;;29.61;31.25;101909.72;5093715;28;20119;-63
2023/06/06 10:20:15;;;;;;;9.05;5.90;;;;;;;29.47;32.48;101894.06;5093382;28;20115;-64
2023/06/06 10:22:41;;;;;;;10.52;5.15;;;;;;;29.72;31.38;101904.56;5093425;28;20543;-63
2023/06/06 10:25:12;;;;;;;8.90;5.47;;;;;;;29.93;32.32;101908.88;5093615;28;20028;-63
2023/06/06 10:27:41;;;;;;;;;;;;;;;30.40;30.54;101908.16;5075638;28;20024;-64
2023/06/06 10:30:34;;;;;;;10.55;5.13;;;;;;;30.20;30.95;101899.34;5093345;28;19958;-63
2023/06/06 10:33:13;;;;;;;11.98;5.57;;;;;;;30.31;31.13;101915.97;5093551;28;20035;-63
2023/06/06 10:35:43;;;;;;;11.38;5.63;;;;;;;30.20;30.71;101902.94;5093327;28;20040;-63
2023/06/06 10:38:09;;;;;;;10.70;5.78;;;;;;;30.29;30.94;101910.63;5093350;28;20441;-64
2023/06/06 10:40:59;;;;;;;9.32;5.38;;;;;;;30.77;31.04;101905.25;5093285;28;20043;-63
2023/06/06 10:43:33;;;;;;;11.43;5.15;;;;;;;30.63;30.38;101898.69;5093139;28;20058;-63
2023/06/06 10:45:59;;;;;;;8.60;4.85;;;;;;;30.67;29.91;101899.41;5093081;28;20474;-64
2023/06/06 10:48:38;;;;;;;10.80;5.30;;;;;;;30.92;29.85;101897.06;5093041;28;20028;-63
2023/06/06 10:51:05;;;;;;;10.80;5.22;;;;;;;30.95;29.61;101890.53;5093047;28;20024;-63
2023/06/06 10:53:31;;;;;;;13.80;5.68;;;;;;;31.23;28.96;101894.38;5092847;28;20089;-63
2023/06/06 10:55:56;;;;;;;8.40;4.57;;;;;;;31.16;29.64;101897.44;5092652;28;20457;-63
2023/06/06 10:58:34;;;;;;;10.65;5.05;;;;;;;31.34;29.02;101894.63;5092904;28;20054;-63
2023/06/06 11:01:04;;;;;;;8.40;5.40;;;;;;;31.14;29.15;101888.47;5092964;28;20589;-63
2023/06/06 11:03:38;;;;;;;11.65;5.13;;;;;;;31.20;28.93;101884.50;5092787;28;20024;-64
2023/06/06 11:06:09;;;;;;;8.63;4.72;;;;;;;31.19;29.42;101877.28;5096821;28;20103;-63
2023/06/06 11:09:11;;;;;;;9.77;5.07;;;;;;;31.44;29.48;101884.03;5097046;28;20086;-63
2023/06/06 11:11:37;;;;;;;10.18;4.90;;;;;;;31.63;29.21;101873.72;5093147;28;20123;-64
2023/06/06 11:14:03;;;;;;;10.02;4.72;;;;;;;32.06;27.75;101876.53;5097000;28;20107;-64
2023/06/06 11:16:38;;;;;;;12.57;5.53;;;;;;;31.95;29.06;101869.03;5096614;28;20044;-63